sensor_id;sensor_type;location;lat;lon;timestamp;pressure;altitude;pressure_sealevel;temperature;humidity
72061;BME280;59925;52.136;5.420;2022-12-29T00:01:53;100140.09;;;10.05;93.44
72061;BME280;59925;52.136;5.420;2022-12-29T00:04:21;100135.81;;;10.04;93.50
72061;BME280;59925;52.136;5.420;2022-12-29T00:06:48;100118.59;;;10.10;92.93
72061;BME280;59925;52.136;5.420;2022-12-29T00:09:16;100134.09;;;10.13;92.20
72061;BME280;59925;52.136;5.420;2022-12-29T00:11:42;100122.56;;;10.12;92.37
72061;BME280;59925;52.136;5.420;2022-12-29T00:14:09;100110.53;;;10.15;92.35
72061;BME280;59925;52.136;5.420;2022-12-29T00:16:54;100116.31;;;10.22;91.73
72061;BME280;59925;52.136;5.420;2022-12-29T00:19:21;100119.34;;;10.16;91.91
72061;BME280;59925;52.136;5.420;2022-12-29T00:22:09;100114.78;;;10.16;91.79
72061;BME280;59925;52.136;5.420;2022-12-29T00:24:54;100099.72;;;10.20;91.43
72061;BME280;59925;52.136;5.420;2022-12-29T00:27:21;100101.94;;;10.18;91.53
72061;BME280;59925;52.136;5.420;2022-12-29T00:30:10;100103.78;;;10.18;91.38
72061;BME280;59925;52.136;5.420;2022-12-29T00:32:56;100106.69;;;10.21;91.57
72061;BME280;59925;52.136;5.420;2022-12-29T00:35:46;100094.34;;;10.25;91.19
72061;BME280;59925;52.136;5.420;2022-12-29T00:38:14;100093.78;;;10.28;91.01
72061;BME280;59925;52.136;5.420;2022-12-29T00:40:58;100089.41;;;10.33;90.73
72061;BME280;59925;52.136;5.420;2022-12-29T00:43:43;100089.19;;;10.29;90.73
72061;BME280;59925;52.136;5.420;2022-12-29T00:46:28;100086.81;;;10.27;90.73
72061;BME280;59925;52.136;5.420;2022-12-29T00:48:55;100077.19;;;10.26;90.84
72061;BME280;59925;52.136;5.420;2022-12-29T00:51:40;100058.66;;;10.30;90.30
72061;BME280;59925;52.136;5.420;2022-12-29T00:54:06;100055.69;;;10.32;90.27
72061;BME280;59925;52.136;5.420;2022-12-29T00:56:33;100053.59;;;10.28;90.64
72061;BME280;59925;52.136;5.420;2022-12-29T00:59:01;100043.66;;;10.29;89.89
72061;BME280;59925;52.136;5.420;2022-12-29T01:01:27;100038.03;;;10.31;89.74
72061;BME280;59925;52.136;5.420;2022-12-29T01:03:54;100044.38;;;10.35;89.50
72061;BME280;59925;52.136;5.420;2022-12-29T01:06:28;100037.22;;;10.30;89.66
72061;BME280;59925;52.136;5.420;2022-12-29T01:08:55;100038.59;;;10.27;90.16
72061;BME280;59925;52.136;5.420;2022-12-29T01:11:40;100038.38;;;10.24;90.11
72061;BME280;59925;52.136;5.420;2022-12-29T01:14:07;100024.97;;;10.24;90.08
72061;BME280;59925;52.136;5.420;2022-12-29T01:16:33;100028.22;;;10.21;90.22
72061;BME280;59925;52.136;5.420;2022-12-29T01:19:00;100026.94;;;10.18;90.48
72061;BME280;59925;52.136;5.420;2022-12-29T01:21:26;100019.72;;;10.13;91.43
72061;BME280;59925;52.136;5.420;2022-12-29T01:23:53;100031.06;;;10.05;91.94
72061;BME280;59925;52.136;5.420;2022-12-29T01:26:19;100040.53;;;9.97;92.51
72061;BME280;59925;52.136;5.420;2022-12-29T01:28:46;100022.94;;;9.91;93.68
72061;BME280;59925;52.136;5.420;2022-12-29T01:31:14;100024.63;;;9.82;93.75
72061;BME280;59925;52.136;5.420;2022-12-29T01:33:41;100029.25;;;9.76;94.38
72061;BME280;59925;52.136;5.420;2022-12-29T01:36:11;100015.41;;;9.69;95.67
72061;BME280;59925;52.136;5.420;2022-12-29T01:38:40;100026.16;;;9.64;96.29
72061;BME280;59925;52.136;5.420;2022-12-29T01:41:09;100021.13;;;9.57;96.78
72061;BME280;59925;52.136;5.420;2022-12-29T01:43:42;100037.75;;;9.54;96.92
72061;BME280;59925;52.136;5.420;2022-12-29T01:46:39;100015.84;;;9.52;97.53
72061;BME280;59925;52.136;5.420;2022-12-29T01:49:16;100025.50;;;9.48;97.52
72061;BME280;59925;52.136;5.420;2022-12-29T01:51:51;100035.66;;;9.51;98.28
72061;BME280;59925;52.136;5.420;2022-12-29T01:56:59;100045.53;;;9.50;98.20
72061;BME280;59925;52.136;5.420;2022-12-29T01:59:30;100042.34;;;9.48;98.29
72061;BME280;59925;52.136;5.420;2022-12-29T02:01:59;100030.03;;;9.47;98.84
72061;BME280;59925;52.136;5.420;2022-12-29T02:04:26;100020.94;;;9.48;98.74
72061;BME280;59925;52.136;5.420;2022-12-29T02:07:03;100037.53;;;9.50;98.83
72061;BME280;59925;52.136;5.420;2022-12-29T02:09:32;100035.59;;;9.56;98.71
72061;BME280;59925;52.136;5.420;2022-12-29T02:11:59;100036.94;;;9.59;98.36
72061;BME280;59925;52.136;5.420;2022-12-29T02:14:26;100038.22;;;9.61;98.39
72061;BME280;59925;52.136;5.420;2022-12-29T02:17:10;100041.44;;;9.63;97.76
72061;BME280;59925;52.136;5.420;2022-12-29T02:28:28;100043.28;;;9.63;97.37
72061;BME280;59925;52.136;5.420;2022-12-29T02:37:04;100043.25;;;9.68;97.30
72061;BME280;59925;52.136;5.420;2022-12-29T02:39:40;100044.09;;;9.63;96.79
72061;BME280;59925;52.136;5.420;2022-12-29T02:45:10;100022.19;;;9.61;96.23
72061;BME280;59925;52.136;5.420;2022-12-29T02:47:50;100027.53;;;9.61;95.87
72061;BME280;59925;52.136;5.420;2022-12-29T02:50:25;100026.38;;;9.68;95.84
72061;BME280;59925;52.136;5.420;2022-12-29T02:52:58;100038.97;;;9.67;95.36
72061;BME280;59925;52.136;5.420;2022-12-29T02:55:26;100031.72;;;9.68;95.04
72061;BME280;59925;52.136;5.420;2022-12-29T02:58:18;100034.41;;;9.68;94.38
72061;BME280;59925;52.136;5.420;2022-12-29T03:03:34;100032.53;;;9.68;93.91
72061;BME280;59925;52.136;5.420;2022-12-29T03:11:57;100029.69;;;9.59;93.82
72061;BME280;59925;52.136;5.420;2022-12-29T03:15:02;100038.00;;;9.58;94.03
72061;BME280;59925;52.136;5.420;2022-12-29T03:17:58;100035.59;;;9.56;94.17
72061;BME280;59925;52.136;5.420;2022-12-29T03:20:39;100029.16;;;9.57;94.25
72061;BME280;59925;52.136;5.420;2022-12-29T03:23:08;100044.44;;;9.57;93.70
72061;BME280;59925;52.136;5.420;2022-12-29T03:25:47;100029.13;;;9.62;93.29
72061;BME280;59925;52.136;5.420;2022-12-29T03:28:21;100024.28;;;9.64;93.17
72061;BME280;59925;52.136;5.420;2022-12-29T03:30:49;100014.41;;;9.60;93.49
72061;BME280;59925;52.136;5.420;2022-12-29T03:33:20;100017.94;;;9.55;93.27
72061;BME280;59925;52.136;5.420;2022-12-29T03:35:49;100005.19;;;9.47;93.68
72061;BME280;59925;52.136;5.420;2022-12-29T03:38:25;100005.22;;;9.42;93.47
72061;BME280;59925;52.136;5.420;2022-12-29T03:40:58;100014.31;;;9.41;93.59
72061;BME280;59925;52.136;5.420;2022-12-29T03:43:27;100021.03;;;9.38;93.25
72061;BME280;59925;52.136;5.420;2022-12-29T03:45:54;100011.16;;;9.39;93.79
72061;BME280;59925;52.136;5.420;2022-12-29T03:48:21;100013.84;;;9.39;93.36
72061;BME280;59925;52.136;5.420;2022-12-29T03:50:47;100017.59;;;9.38;93.39
72061;BME280;59925;52.136;5.420;2022-12-29T03:53:13;100006.63;;;9.34;93.30
72061;BME280;59925;52.136;5.420;2022-12-29T03:55:40;100007.75;;;9.28;93.30
72061;BME280;59925;52.136;5.420;2022-12-29T03:58:06;100011.28;;;9.23;93.71
72061;BME280;59925;52.136;5.420;2022-12-29T04:00:33;100005.94;;;9.23;93.54
72061;BME280;59925;52.136;5.420;2022-12-29T04:02:59;100011.84;;;9.20;93.52
72061;BME280;59925;52.136;5.420;2022-12-29T04:05:26;100012.94;;;9.14;93.47
72061;BME280;59925;52.136;5.420;2022-12-29T04:07:52;100006.53;;;9.15;93.74
72061;BME280;59925;52.136;5.420;2022-12-29T04:10:19;99998.78;;;9.13;93.79
72061;BME280;59925;52.136;5.420;2022-12-29T04:12:45;99997.72;;;9.14;93.25
72061;BME280;59925;52.136;5.420;2022-12-29T04:15:12;100005.22;;;9.12;93.63
72061;BME280;59925;52.136;5.420;2022-12-29T04:17:39;100010.78;;;9.16;93.50
72061;BME280;59925;52.136;5.420;2022-12-29T04:20:06;100017.19;;;9.20;93.02
72061;BME280;59925;52.136;5.420;2022-12-29T04:22:59;100031.94;;;9.17;92.74
72061;BME280;59925;52.136;5.420;2022-12-29T04:25:26;100033.53;;;9.18;93.06
72061;BME280;59925;52.136;5.420;2022-12-29T04:27:52;100043.16;;;9.19;92.41
72061;BME280;59925;52.136;5.420;2022-12-29T04:30:19;100039.38;;;9.20;92.19
72061;BME280;59925;52.136;5.420;2022-12-29T04:32:45;100046.06;;;9.23;92.00
72061;BME280;59925;52.136;5.420;2022-12-29T04:35:11;100065.03;;;9.22;91.76
72061;BME280;59925;52.136;5.420;2022-12-29T04:37:38;100039.38;;;9.20;91.21
72061;BME280;59925;52.136;5.420;2022-12-29T04:40:05;100039.66;;;9.19;91.04
72061;BME280;59925;52.136;5.420;2022-12-29T04:42:31;100047.69;;;9.14;91.10
72061;BME280;59925;52.136;5.420;2022-12-29T04:44:58;100044.47;;;9.17;90.76
72061;BME280;59925;52.136;5.420;2022-12-29T04:47:24;100045.56;;;9.16;90.32
72061;BME280;59925;52.136;5.420;2022-12-29T04:49:50;100057.84;;;9.17;90.08
72061;BME280;59925;52.136;5.420;2022-12-29T04:52:17;100050.59;;;9.23;89.47
72061;BME280;59925;52.136;5.420;2022-12-29T04:54:43;100059.19;;;9.19;89.36
72061;BME280;59925;52.136;5.420;2022-12-29T04:57:10;100048.75;;;9.18;88.78
72061;BME280;59925;52.136;5.420;2022-12-29T04:59:36;100040.47;;;9.19;88.73
72061;BME280;59925;52.136;5.420;2022-12-29T05:02:02;100046.63;;;9.15;88.65
72061;BME280;59925;52.136;5.420;2022-12-29T05:04:29;100067.25;;;9.14;88.57
72061;BME280;59925;52.136;5.420;2022-12-29T05:06:55;100068.06;;;9.10;89.09
72061;BME280;59925;52.136;5.420;2022-12-29T05:09:22;100068.34;;;9.08;88.77
72061;BME280;59925;52.136;5.420;2022-12-29T05:11:50;100071.28;;;9.12;88.79
72061;BME280;59925;52.136;5.420;2022-12-29T05:14:16;100087.31;;;9.12;88.83
72061;BME280;59925;52.136;5.420;2022-12-29T05:16:43;100085.72;;;9.11;88.31
72061;BME280;59925;52.136;5.420;2022-12-29T05:19:10;100080.38;;;9.11;88.46
72061;BME280;59925;52.136;5.420;2022-12-29T05:21:36;100076.09;;;9.10;87.91
72061;BME280;59925;52.136;5.420;2022-12-29T05:24:03;100075.03;;;9.11;88.16
72061;BME280;59925;52.136;5.420;2022-12-29T05:26:29;100068.88;;;9.10;87.67
72061;BME280;59925;52.136;5.420;2022-12-29T05:28:56;100081.97;;;9.12;87.01
72061;BME280;59925;52.136;5.420;2022-12-29T05:31:22;100082.78;;;9.07;87.59
72061;BME280;59925;52.136;5.420;2022-12-29T05:33:49;100086.81;;;9.04;87.36
72061;BME280;59925;52.136;5.420;2022-12-29T05:36:15;100085.75;;;9.05;87.84
72061;BME280;59925;52.136;5.420;2022-12-29T05:38:43;100085.75;;;9.05;87.36
72061;BME280;59925;52.136;5.420;2022-12-29T05:41:10;100086.28;;;9.02;87.32
72061;BME280;59925;52.136;5.420;2022-12-29T05:43:37;100083.38;;;8.99;87.23
72061;BME280;59925;52.136;5.420;2022-12-29T05:46:03;100076.97;;;9.00;87.45
72061;BME280;59925;52.136;5.420;2022-12-29T05:48:30;100069.22;;;8.98;87.37
72061;BME280;59925;52.136;5.420;2022-12-29T05:51:03;100065.75;;;8.98;86.91
72061;BME280;59925;52.136;5.420;2022-12-29T05:53:29;100079.34;;;9.01;86.77
72061;BME280;59925;52.136;5.420;2022-12-29T05:55:56;100090.03;;;9.01;86.54
72061;BME280;59925;52.136;5.420;2022-12-29T05:58:22;100092.44;;;9.03;86.55
72061;BME280;59925;52.136;5.420;2022-12-29T06:00:48;100098.09;;;8.96;86.92
72061;BME280;59925;52.136;5.420;2022-12-29T06:03:15;100109.03;;;9.00;86.66
72061;BME280;59925;52.136;5.420;2022-12-29T06:05:41;100108.50;;;9.03;86.55
72061;BME280;59925;52.136;5.420;2022-12-29T06:08:08;100108.22;;;9.04;86.39
72061;BME280;59925;52.136;5.420;2022-12-29T06:10:34;100119.44;;;9.07;86.31
72061;BME280;59925;52.136;5.420;2022-12-29T06:13:00;100111.16;;;9.03;86.16
72061;BME280;59925;52.136;5.420;2022-12-29T06:15:27;100127.22;;;8.98;86.70
72061;BME280;59925;52.136;5.420;2022-12-29T06:17:53;100112.56;;;8.90;87.02
72061;BME280;59925;52.136;5.420;2022-12-29T06:20:20;100129.16;;;8.87;87.33
72061;BME280;59925;52.136;5.420;2022-12-29T06:22:46;100115.53;;;8.83;87.43
72061;BME280;59925;52.136;5.420;2022-12-29T06:25:12;100115.28;;;8.80;87.54
72061;BME280;59925;52.136;5.420;2022-12-29T06:27:39;100131.09;;;8.76;87.21
72061;BME280;59925;52.136;5.420;2022-12-29T06:30:06;100123.31;;;8.74;87.66
72061;BME280;59925;52.136;5.420;2022-12-29T06:32:33;100122.28;;;8.70;87.67
72061;BME280;59925;52.136;5.420;2022-12-29T06:34:59;100129.53;;;8.65;87.83
72061;BME280;59925;52.136;5.420;2022-12-29T06:37:26;100137.31;;;8.56;88.71
72061;BME280;59925;52.136;5.420;2022-12-29T06:39:52;100138.66;;;8.53;89.16
72061;BME280;59925;52.136;5.420;2022-12-29T06:42:19;100134.13;;;8.49;89.09
72061;BME280;59925;52.136;5.420;2022-12-29T06:44:45;100142.38;;;8.42;89.69
72061;BME280;59925;52.136;5.420;2022-12-29T06:47:11;100144.28;;;8.41;89.78
72061;BME280;59925;52.136;5.420;2022-12-29T06:49:38;100146.94;;;8.41;89.60
72061;BME280;59925;52.136;5.420;2022-12-29T06:52:05;100130.38;;;8.39;90.08
72061;BME280;59925;52.136;5.420;2022-12-29T06:54:38;100140.00;;;8.40;89.67
72061;BME280;59925;52.136;5.420;2022-12-29T06:57:04;100135.72;;;8.50;88.73
72061;BME280;59925;52.136;5.420;2022-12-29T06:59:30;100135.72;;;8.55;88.01
72061;BME280;59925;52.136;5.420;2022-12-29T07:01:57;100119.97;;;8.53;88.06
72061;BME280;59925;52.136;5.420;2022-12-29T07:04:23;100125.81;;;8.55;87.75
72061;BME280;59925;52.136;5.420;2022-12-29T07:06:50;100126.63;;;8.56;86.97
72061;BME280;59925;52.136;5.420;2022-12-29T07:09:16;100149.59;;;8.57;86.68
72061;BME280;59925;52.136;5.420;2022-12-29T07:11:43;100171.22;;;8.55;86.38
72061;BME280;59925;52.136;5.420;2022-12-29T07:14:10;100136.53;;;8.50;86.73
72061;BME280;59925;52.136;5.420;2022-12-29T07:16:37;100129.59;;;8.34;87.37
72061;BME280;59925;52.136;5.420;2022-12-29T07:19:03;100156.06;;;8.25;87.97
72061;BME280;59925;52.136;5.420;2022-12-29T07:21:30;100149.16;;;8.19;88.04
72061;BME280;59925;52.136;5.420;2022-12-29T07:23:56;100156.06;;;8.09;88.65
72061;BME280;59925;52.136;5.420;2022-12-29T07:26:23;100163.03;;;8.00;89.34
72061;BME280;59925;52.136;5.420;2022-12-29T07:28:50;100163.03;;;7.95;89.70
72061;BME280;59925;52.136;5.420;2022-12-29T07:31:19;100168.38;;;7.90;89.85
72061;BME280;59925;52.136;5.420;2022-12-29T07:33:46;100169.72;;;7.82;90.24
72061;BME280;59925;52.136;5.420;2022-12-29T07:36:15;100174.53;;;7.80;90.82
72061;BME280;59925;52.136;5.420;2022-12-29T07:38:42;100184.66;;;7.78;90.62
72061;BME280;59925;52.136;5.420;2022-12-29T07:41:09;100186.28;;;7.74;90.80
72061;BME280;59925;52.136;5.420;2022-12-29T07:43:35;100177.44;;;7.73;91.17
72061;BME280;59925;52.136;5.420;2022-12-29T07:46:02;100177.19;;;7.75;91.45
72061;BME280;59925;52.136;5.420;2022-12-29T07:48:28;100180.66;;;7.75;91.67
72061;BME280;59925;52.136;5.420;2022-12-29T07:50:55;100174.53;;;7.80;91.73
72061;BME280;59925;52.136;5.420;2022-12-29T07:53:21;100174.53;;;7.85;91.68
72061;BME280;59925;52.136;5.420;2022-12-29T07:55:47;100173.72;;;7.90;91.55
72061;BME280;59925;52.136;5.420;2022-12-29T07:58:14;100182.28;;;7.92;91.29
72061;BME280;59925;52.136;5.420;2022-12-29T08:00:40;100167.31;;;7.96;90.98
72061;BME280;59925;52.136;5.420;2022-12-29T08:03:07;100169.97;;;8.01;90.88
72061;BME280;59925;52.136;5.420;2022-12-29T08:05:33;100178.00;;;8.06;90.41
72061;BME280;59925;52.136;5.420;2022-12-29T08:08:00;100173.44;;;8.12;90.09
72061;BME280;59925;52.136;5.420;2022-12-29T08:10:26;100165.44;;;8.12;89.66
72061;BME280;59925;52.136;5.420;2022-12-29T08:12:53;100148.06;;;8.15;89.21
72061;BME280;59925;52.136;5.420;2022-12-29T08:15:19;100161.41;;;8.25;88.57
72061;BME280;59925;52.136;5.420;2022-12-29T08:17:49;100163.81;;;8.26;88.82
72061;BME280;59925;52.136;5.420;2022-12-29T08:20:16;100154.16;;;8.31;88.32
72061;BME280;59925;52.136;5.420;2022-12-29T08:22:42;100153.09;;;8.32;88.31
72061;BME280;59925;52.136;5.420;2022-12-29T08:25:08;100159.75;;;8.39;87.60
72061;BME280;59925;52.136;5.420;2022-12-29T08:27:35;100152.03;;;8.48;86.58
72061;BME280;59925;52.136;5.420;2022-12-29T08:30:02;100153.63;;;8.49;86.05
72061;BME280;59925;52.136;5.420;2022-12-29T08:32:28;100161.63;;;8.54;85.69
72061;BME280;59925;52.136;5.420;2022-12-29T08:34:55;100151.19;;;8.58;84.97
72061;BME280;59925;52.136;5.420;2022-12-29T08:37:22;100160.25;;;8.62;84.84
72061;BME280;59925;52.136;5.420;2022-12-29T08:39:56;100168.00;;;8.64;84.43
72061;BME280;59925;52.136;5.420;2022-12-29T08:42:23;100164.53;;;8.63;84.19
72061;BME280;59925;52.136;5.420;2022-12-29T08:44:51;100161.31;;;8.61;84.34
72061;BME280;59925;52.136;5.420;2022-12-29T08:47:17;100173.63;;;8.62;83.85
72061;BME280;59925;52.136;5.420;2022-12-29T08:49:43;100177.88;;;8.68;83.47
72061;BME280;59925;52.136;5.420;2022-12-29T08:52:10;100162.38;;;8.70;83.13
72061;BME280;59925;52.136;5.420;2022-12-29T08:54:36;100180.25;;;8.75;83.79
72061;BME280;59925;52.136;5.420;2022-12-29T08:57:03;100173.06;;;8.70;83.74
72061;BME280;59925;52.136;5.420;2022-12-29T08:59:29;100187.50;;;8.69;83.96
72061;BME280;59925;52.136;5.420;2022-12-29T09:01:56;100181.91;;;8.66;84.68
72061;BME280;59925;52.136;5.420;2022-12-29T09:04:22;100193.66;;;8.65;84.95
72061;BME280;59925;52.136;5.420;2022-12-29T09:06:50;100176.00;;;8.69;84.64
72061;BME280;59925;52.136;5.420;2022-12-29T09:09:16;100187.47;;;8.74;83.92
72061;BME280;59925;52.136;5.420;2022-12-29T09:11:43;100191.22;;;8.73;84.24
72061;BME280;59925;52.136;5.420;2022-12-29T09:14:10;100194.69;;;8.74;84.41
72061;BME280;59925;52.136;5.420;2022-12-29T09:16:36;100197.88;;;8.81;84.04
72061;BME280;59925;52.136;5.420;2022-12-29T09:19:03;100183.19;;;8.79;84.32
72061;BME280;59925;52.136;5.420;2022-12-29T09:21:30;100201.88;;;8.79;84.61
72061;BME280;59925;52.136;5.420;2022-12-29T09:23:56;100200.56;;;8.76;85.04
72061;BME280;59925;52.136;5.420;2022-12-29T09:26:23;100205.09;;;8.76;85.68
72061;BME280;59925;52.136;5.420;2022-12-29T09:28:49;100204.06;;;8.71;85.63
72061;BME280;59925;52.136;5.420;2022-12-29T09:31:16;100223.03;;;8.70;85.77
72061;BME280;59925;52.136;5.420;2022-12-29T09:33:42;100218.78;;;8.64;86.18
72061;BME280;59925;52.136;5.420;2022-12-29T09:36:08;100225.47;;;8.56;87.06
72061;BME280;59925;52.136;5.420;2022-12-29T09:38:35;100239.38;;;8.48;87.86
72061;BME280;59925;52.136;5.420;2022-12-29T09:41:12;100239.91;;;8.39;88.96
72061;BME280;59925;52.136;5.420;2022-12-29T09:46:29;100257.00;;;8.23;90.36
72061;BME280;59925;52.136;5.420;2022-12-29T09:51:43;100261.56;;;8.12;91.67
72061;BME280;59925;52.136;5.420;2022-12-29T09:54:33;100253.00;;;8.10;92.42
72061;BME280;59925;52.136;5.420;2022-12-29T09:57:03;100271.94;;;8.08;92.30
72061;BME280;59925;52.136;5.420;2022-12-29T09:59:41;100274.59;;;8.08;93.25
72061;BME280;59925;52.136;5.420;2022-12-29T10:04:48;100283.69;;;8.07;93.58
72061;BME280;59925;52.136;5.420;2022-12-29T10:07:36;100283.19;;;8.05;93.76
72061;BME280;59925;52.136;5.420;2022-12-29T10:10:35;100284.50;;;8.08;94.37
72061;BME280;59925;52.136;5.420;2022-12-29T10:13:21;100297.84;;;8.08;94.44
72061;BME280;59925;52.136;5.420;2022-12-29T10:21:49;100309.59;;;8.07;94.96
72061;BME280;59925;52.136;5.420;2022-12-29T10:24:21;100321.88;;;8.08;95.10
72061;BME280;59925;52.136;5.420;2022-12-29T10:26:51;100314.66;;;8.08;95.24
72061;BME280;59925;52.136;5.420;2022-12-29T10:29:28;100334.69;;;8.11;95.48
72061;BME280;59925;52.136;5.420;2022-12-29T10:32:03;100315.75;;;8.12;95.80
72061;BME280;59925;52.136;5.420;2022-12-29T10:34:36;100317.63;;;8.12;95.88
72061;BME280;59925;52.136;5.420;2022-12-29T10:40:31;100337.38;;;8.11;95.93
72061;BME280;59925;52.136;5.420;2022-12-29T10:42:59;100336.56;;;8.16;95.82
72061;BME280;59925;52.136;5.420;2022-12-29T10:45:30;100345.38;;;8.16;95.85
72061;BME280;59925;52.136;5.420;2022-12-29T10:48:01;100352.06;;;8.13;96.05
72061;BME280;59925;52.136;5.420;2022-12-29T10:50:29;100349.94;;;8.16;96.18
72061;BME280;59925;52.136;5.420;2022-12-29T10:53:02;100363.53;;;8.19;96.30
72061;BME280;59925;52.136;5.420;2022-12-29T10:55:33;100369.97;;;8.23;96.25
72061;BME280;59925;52.136;5.420;2022-12-29T10:58:04;100373.97;;;8.26;95.75
72061;BME280;59925;52.136;5.420;2022-12-29T11:00:33;100388.94;;;8.27;95.67
72061;BME280;59925;52.136;5.420;2022-12-29T11:06:14;100380.13;;;8.26;95.61
72061;BME280;59925;52.136;5.420;2022-12-29T11:09:47;100395.06;;;8.27;95.84
72061;BME280;59925;52.136;5.420;2022-12-29T11:12:29;100402.53;;;8.31;95.55
72061;BME280;59925;52.136;5.420;2022-12-29T11:15:15;100406.28;;;8.35;95.46
72061;BME280;59925;52.136;5.420;2022-12-29T11:18:07;100395.34;;;8.36;95.40
72061;BME280;59925;52.136;5.420;2022-12-29T11:20:38;100411.66;;;8.40;95.31
72061;BME280;59925;52.136;5.420;2022-12-29T11:23:23;100418.88;;;8.44;95.36
72061;BME280;59925;52.136;5.420;2022-12-29T11:26:21;100421.56;;;8.50;95.44
72061;BME280;59925;52.136;5.420;2022-12-29T11:31:54;100415.16;;;8.87;94.88
72061;BME280;59925;52.136;5.420;2022-12-29T11:34:26;100427.47;;;9.09;94.86
72061;BME280;59925;52.136;5.420;2022-12-29T11:37:18;100431.75;;;9.10;93.93
72061;BME280;59925;52.136;5.420;2022-12-29T11:39:56;100432.53;;;8.95;93.35
72061;BME280;59925;52.136;5.420;2022-12-29T11:45:04;100435.50;;;8.78;92.85
72061;BME280;59925;52.136;5.420;2022-12-29T11:47:36;100434.69;;;8.72;92.67
72061;BME280;59925;52.136;5.420;2022-12-29T11:50:05;100443.53;;;8.72;92.08
72061;BME280;59925;52.136;5.420;2022-12-29T11:52:35;100445.94;;;8.79;92.24
72061;BME280;59925;52.136;5.420;2022-12-29T11:55:05;100442.72;;;8.87;92.41
72061;BME280;59925;52.136;5.420;2022-12-29T11:57:34;100456.34;;;8.86;91.82
72061;BME280;59925;52.136;5.420;2022-12-29T12:00:16;100456.88;;;8.78;91.83
72061;BME280;59925;52.136;5.420;2022-12-29T12:02:56;100445.09;;;8.79;91.69
72061;BME280;59925;52.136;5.420;2022-12-29T12:05:30;100451.81;;;8.92;91.88
72061;BME280;59925;52.136;5.420;2022-12-29T12:10:58;100460.63;;;8.71;91.41
72061;BME280;59925;52.136;5.420;2022-12-29T12:13:37;100459.81;;;8.66;91.36
72061;BME280;59925;52.136;5.420;2022-12-29T12:16:13;100469.69;;;8.60;91.58
72061;BME280;59925;52.136;5.420;2022-12-29T12:18:55;100452.78;;;8.44;91.84
72061;BME280;59925;52.136;5.420;2022-12-29T12:21:34;100467.47;;;8.36;92.39
72061;BME280;59925;52.136;5.420;2022-12-29T12:24:33;100478.16;;;8.31;92.85
72061;BME280;59925;52.136;5.420;2022-12-29T12:30:03;100472.25;;;8.34;93.79
72061;BME280;59925;52.136;5.420;2022-12-29T12:33:00;100488.03;;;8.41;94.14
72061;BME280;59925;52.136;5.420;2022-12-29T12:40:59;100476.31;;;8.47;94.09
72061;BME280;59925;52.136;5.420;2022-12-29T12:46:44;100479.56;;;8.59;94.16
72061;BME280;59925;52.136;5.420;2022-12-29T12:55:23;100487.06;;;8.83;93.71
72061;BME280;59925;52.136;5.420;2022-12-29T12:58:03;100490.84;;;8.87;93.47
72061;BME280;59925;52.136;5.420;2022-12-29T13:00:47;100497.78;;;8.88;92.59
72061;BME280;59925;52.136;5.420;2022-12-29T13:06:59;100499.38;;;8.95;92.17
72061;BME280;59925;52.136;5.420;2022-12-29T13:12:23;100501.81;;;8.96;91.13
72061;BME280;59925;52.136;5.420;2022-12-29T13:28:56;100502.59;;;8.92;89.74
72061;BME280;59925;52.136;5.420;2022-12-29T13:31:48;100528.25;;;8.87;89.97
72061;BME280;59925;52.136;5.420;2022-12-29T13:34:48;100518.63;;;8.86;89.99
72061;BME280;59925;52.136;5.420;2022-12-29T13:37:23;100516.47;;;8.83;90.10
72061;BME280;59925;52.136;5.420;2022-12-29T13:39:55;100523.72;;;8.83;90.19
72061;BME280;59925;52.136;5.420;2022-12-29T13:42:23;100528.25;;;8.82;90.12
72061;BME280;59925;52.136;5.420;2022-12-29T13:45:04;100523.16;;;8.81;90.11
72061;BME280;59925;52.136;5.420;2022-12-29T13:47:38;100523.72;;;8.83;89.58
72061;BME280;59925;52.136;5.420;2022-12-29T13:50:12;100533.88;;;8.86;88.84
72061;BME280;59925;52.136;5.420;2022-12-29T13:52:48;100522.88;;;8.82;89.05
72061;BME280;59925;52.136;5.420;2022-12-29T14:00:50;100529.31;;;8.81;88.89
72061;BME280;59925;52.136;5.420;2022-12-29T14:06:12;100516.50;;;8.78;89.23
72061;BME280;59925;52.136;5.420;2022-12-29T14:08:40;100537.31;;;8.76;89.13
72061;BME280;59925;52.136;5.420;2022-12-29T14:11:09;100548.25;;;8.74;89.17
72061;BME280;59925;52.136;5.420;2022-12-29T14:13:42;100550.66;;;8.71;89.08
72061;BME280;59925;52.136;5.420;2022-12-29T14:16:31;100553.88;;;8.63;89.51
72061;BME280;59925;52.136;5.420;2022-12-29T14:19:13;100558.41;;;8.57;89.85
72061;BME280;59925;52.136;5.420;2022-12-29T14:21:41;100550.31;;;8.47;89.91
72061;BME280;59925;52.136;5.420;2022-12-29T14:34:48;100566.75;;;8.18;89.87
72061;BME280;59925;52.136;5.420;2022-12-29T14:37:29;100565.09;;;8.11;89.95
72061;BME280;59925;52.136;5.420;2022-12-29T14:40:19;100581.13;;;8.06;90.08
72061;BME280;59925;52.136;5.420;2022-12-29T14:42:50;100571.72;;;7.98;90.61
72061;BME280;59925;52.136;5.420;2022-12-29T14:47:45;100579.59;;;7.78;91.45
72061;BME280;59925;52.136;5.420;2022-12-29T14:50:22;100567.03;;;7.73;92.11
72061;BME280;59925;52.136;5.420;2022-12-29T14:55:43;100568.34;;;7.71;92.69
72061;BME280;59925;52.136;5.420;2022-12-29T14:58:32;100569.66;;;7.68;93.12
72061;BME280;59925;52.136;5.420;2022-12-29T15:01:17;100578.47;;;7.69;93.11
72061;BME280;59925;52.136;5.420;2022-12-29T15:03:47;100579.53;;;7.67;93.35
72061;BME280;59925;52.136;5.420;2022-12-29T15:06:16;100582.47;;;7.66;93.74
72061;BME280;59925;52.136;5.420;2022-12-29T15:09:04;100578.19;;;7.65;94.12
72061;BME280;59925;52.136;5.420;2022-12-29T15:11:47;100575.75;;;7.63;94.12
72061;BME280;59925;52.136;5.420;2022-12-29T15:14:32;100579.25;;;7.64;94.47
72061;BME280;59925;52.136;5.420;2022-12-29T15:16:59;100585.66;;;7.68;94.74
72061;BME280;59925;52.136;5.420;2022-12-29T15:19:27;100579.81;;;7.71;94.80
72061;BME280;59925;52.136;5.420;2022-12-29T15:21:55;100575.03;;;7.73;94.81
72061;BME280;59925;52.136;5.420;2022-12-29T15:24:23;100584.91;;;7.73;94.69